Time;durP1;ratioP1;P1;durP2;ratioP2;P2;SDS_P1;SDS_P2;PMS_P1;PMS_P2;Temp;Humidity;BMP_temperature;BMP_pressure;BME280_temperature;BME280_humidity;BME280_pressure;Samples;Min_cycle;Max_cycle;Signal;HPM_P1;HPM_P2
2023/06/03 00:00:13;;;;;;;13.00;4.85;;;13.60;99.90;;;;;;4135185;28;20201;-95
2023/06/03 00:02:14;;;;;;;12.70;4.10;;;13.70;99.90;;;;;;4152338;28;20169;-96
2023/06/03 00:04:17;;;;;;;16.23;4.10;;;13.70;99.90;;;;;;4135607;28;20273;-91
2023/06/03 00:06:17;;;;;;;13.05;4.50;;;13.80;99.90;;;;;;4137201;28;20236;-93
2023/06/03 00:08:18;;;;;;;17.67;4.35;;;13.70;99.90;;;;;;4134559;28;20650;-94
2023/06/03 00:10:19;;;;;;;20.83;4.47;;;13.80;99.90;;;;;;4136501;28;20189;-93
2023/06/03 00:12:20;;;;;;;10.07;4.68;;;13.90;99.90;;;;;;4136091;28;20162;-94
2023/06/03 00:14:24;;;;;;;12.27;4.53;;;13.90;99.90;;;;;;4136354;28;20205;-94
2023/06/03 00:16:26;;;;;;;14.10;5.28;;;14.10;99.90;;;;;;4136976;28;20213;-91
2023/06/03 00:18:27;;;;;;;17.65;4.18;;;14.10;99.90;;;;;;4155842;28;20252;-91
2023/06/03 00:20:29;;;;;;;13.30;4.85;;;14.00;99.90;;;;;;4153560;28;20203;-91
2023/06/03 00:22:30;;;;;;;14.85;4.38;;;14.20;99.90;;;;;;4137986;28;20177;-91
2023/06/03 00:24:30;;;;;;;17.35;4.40;;;14.00;99.90;;;;;;4153412;28;20173;-91
2023/06/03 00:26:32;;;;;;;15.70;4.90;;;14.00;99.90;;;;;;4178627;28;20199;-92
2023/06/03 00:28:34;;;;;;;13.48;4.38;;;14.00;99.90;;;;;;4142569;28;20178;-91
2023/06/03 00:30:35;;;;;;;20.13;5.05;;;13.90;99.90;;;;;;4145233;28;20188;-93
2023/06/03 00:32:36;;;;;;;20.17;4.75;;;13.90;99.90;;;;;;4161787;28;20275;-92
2023/06/03 00:34:37;;;;;;;17.83;4.97;;;13.90;99.90;;;;;;4140477;28;20181;-91
2023/06/03 00:36:39;;;;;;;19.45;5.63;;;14.00;99.90;;;;;;4159153;28;20201;-91
2023/06/03 00:38:44;;;;;;;17.80;5.82;;;13.90;99.90;;;;;;4159625;28;20224;-93
2023/06/03 00:40:48;;;;;;;11.40;4.90;;;13.80;99.90;;;;;;4158192;28;20200;-92
2023/06/03 00:42:49;;;;;;;10.70;4.88;;;13.60;99.90;;;;;;4145474;28;20261;-94
2023/06/03 00:44:51;;;;;;;14.10;5.70;;;13.70;99.90;;;;;;4143715;28;20273;-91
2023/06/03 00:46:56;;;;;;;15.25;5.15;;;13.60;99.90;;;;;;4160199;28;20192;-91
2023/06/03 00:48:59;;;;;;;15.27;5.20;;;13.40;99.90;;;;;;4143417;28;20193;-91
2023/06/03 00:51:00;;;;;;;18.20;5.82;;;13.20;99.90;;;;;;4157669;28;20667;-90
2023/06/03 00:53:04;;;;;;;14.77;6.00;;;13.20;99.90;;;;;;4161597;28;20222;-91
2023/06/03 00:55:05;;;;;;;12.90;5.90;;;13.30;99.90;;;;;;4159966;28;20160;-95
2023/06/03 00:57:07;;;;;;;14.80;6.07;;;13.40;99.90;;;;;;4142491;28;20229;-91
2023/06/03 00:59:12;;;;;;;14.20;6.50;;;13.60;99.90;;;;;;4155906;28;20231;-90
2023/06/03 01:01:14;;;;;;;17.75;6.40;;;13.50;99.90;;;;;;4123230;28;20213;-90
2023/06/03 01:03:19;;;;;;;17.02;6.50;;;13.40;99.90;;;;;;4136932;28;20261;-95
2023/06/03 01:05:20;;;;;;;15.38;6.15;;;13.40;99.90;;;;;;4136660;28;20272;-91
2023/06/03 01:07:38;;;;;;;15.93;6.30;;;13.30;99.90;;;;;;4153600;28;20184;-90
2023/06/03 01:09:57;;;;;;;11.45;6.30;;;13.20;99.90;;;;;;4157039;28;20277;-95
2023/06/03 01:12:13;;;;;;;14.13;6.22;;;13.40;99.90;;;;;;4158732;28;20180;-91
2023/06/03 01:14:23;;;;;;;22.60;7.43;;;13.50;99.90;;;;;;4178744;28;20183;-92
2023/06/03 01:16:30;;;;;;;16.88;7.28;;;13.60;99.90;;;;;;4143815;28;20201;-92
2023/06/03 01:18:38;;;;;;;16.15;7.15;;;13.50;99.90;;;;;;4161615;28;20161;-89
2023/06/03 01:20:42;;;;;;;22.50;8.27;;;13.40;99.90;;;;;;4157525;28;20692;-90
2023/06/03 01:22:49;;;;;;;16.85;7.25;;;13.40;99.90;;;;;;4143104;28;20173;-91
2023/06/03 01:25:05;;;;;;;21.17;7.22;;;13.50;99.90;;;;;;4139393;28;20251;-95
2023/06/03 01:27:06;;;;;;;16.48;7.07;;;13.50;99.90;;;;;;4159929;28;20254;-93
2023/06/03 01:29:08;;;;;;;20.42;7.82;;;13.60;99.90;;;;;;4159298;28;20188;-92
2023/06/03 01:31:09;;;;;;;17.55;7.60;;;13.20;99.90;;;;;;4157202;28;20275;-94
2023/06/03 01:33:10;;;;;;;15.32;6.93;;;13.20;99.90;;;;;;4173376;28;20167;-92
2023/06/03 01:35:13;;;;;;;15.25;7.40;;;13.10;99.90;;;;;;4157361;28;20204;-92
2023/06/03 01:37:15;;;;;;;18.90;7.80;;;13.20;99.90;;;;;;4139471;28;20193;-96
2023/06/03 01:39:18;;;;;;;18.90;7.85;;;13.20;99.90;;;;;;4159231;28;20215;-95
2023/06/03 01:41:20;;;;;;;19.10;8.35;;;13.10;99.90;;;;;;4171697;28;20227;-94
2023/06/03 01:43:20;;;;;;;17.65;8.00;;;13.20;99.90;;;;;;4141961;28;20582;-94
2023/06/03 01:45:22;;;;;;;19.13;8.38;;;13.10;99.90;;;;;;4156271;28;20200;-92
2023/06/03 01:47:23;;;;;;;17.95;8.88;;;13.40;99.90;;;;;;4172169;28;20180;-95
2023/06/03 01:49:31;;;;;;;23.00;8.95;;;13.60;99.90;;;;;;4177765;28;20164;-92
2023/06/03 01:51:32;;;;;;;22.27;8.80;;;13.80;99.90;;;;;;4141058;28;20209;-96
2023/06/03 01:53:34;;;;;;;19.65;9.85;;;13.70;99.90;;;;;;4163225;28;20190;-94
2023/06/03 01:55:36;;;;;;;21.75;8.95;;;13.50;99.90;;;;;;4162508;28;20229;-91
2023/06/03 01:57:38;;;;;;;21.73;9.60;;;13.40;99.90;;;;;;4159109;28;20184;-95
2023/06/03 01:59:45;;;;;;;21.45;9.32;;;13.50;99.90;;;;;;4139816;28;20157;-91
2023/06/03 02:01:49;;;;;;;17.98;8.55;;;13.10;99.90;;;;;;4176232;28;20287;-94
2023/06/03 02:03:57;;;;;;;20.75;9.38;;;13.30;99.90;;;;;;4160992;28;20149;-92
2023/06/03 02:06:01;;;;;;;19.63;8.93;;;13.30;99.90;;;;;;4142594;28;20201;-93
2023/06/03 02:08:11;;;;;;;26.73;9.65;;;13.10;99.90;;;;;;4159251;28;20177;-94
2023/06/03 02:10:13;;;;;;;26.38;8.98;;;13.00;99.90;;;;;;4156122;28;20168;-91
2023/06/03 02:12:33;;;;;;;19.38;8.57;;;12.90;99.90;;;;;;4173009;28;20191;-93
2023/06/03 02:14:37;;;;;;;27.45;9.73;;;12.90;99.90;;;;;;4143754;28;20154;-95
2023/06/03 02:16:40;;;;;;;17.75;9.93;;;13.00;99.90;;;;;;4143442;28;20197;-95
2023/06/03 02:18:42;;;;;;;21.58;9.95;;;13.00;99.90;;;;;;4145385;28;20173;-92
2023/06/03 02:20:52;;;;;;;20.52;10.15;;;13.10;99.90;;;;;;4160474;28;20204;-96
2023/06/03 02:22:54;;;;;;;17.92;10.50;;;13.40;99.90;;;;;;4139828;28;20213;-91
2023/06/03 02:24:57;;;;;;;19.95;10.15;;;13.40;99.90;;;;;;4160918;28;20172;-91
2023/06/03 02:27:03;;;;;;;13.98;9.77;;;13.40;99.90;;;;;;4155496;28;20271;-91
2023/06/03 02:29:06;;;;;;;21.65;10.82;;;13.50;99.90;;;;;;4175308;28;20176;-95
2023/06/03 02:31:07;;;;;;;21.77;10.98;;;13.50;99.90;;;;;;4141374;28;20177;-91
2023/06/03 02:33:08;;;;;;;20.00;11.02;;;13.60;99.90;;;;;;4173329;28;20184;-96
2023/06/03 02:35:10;;;;;;;17.92;10.65;;;13.70;99.90;;;;;;4141892;28;20264;-92
2023/06/03 02:37:17;;;;;;;20.88;11.00;;;13.70;99.90;;;;;;4124726;28;20217;-92
2023/06/03 02:39:19;;;;;;;18.17;11.00;;;13.40;99.90;;;;;;4140274;28;20222;-92
2023/06/03 02:41:20;;;;;;;22.42;11.18;;;13.50;99.90;;;;;;4156050;28;20709;-91
2023/06/03 02:43:20;;;;;;;27.23;11.40;;;13.50;99.90;;;;;;4141451;28;20209;-92
2023/06/03 02:45:22;;;;;;;21.15;10.90;;;13.40;99.90;;;;;;4159350;28;20173;-93
2023/06/03 02:47:24;;;;;;;27.20;12.25;;;13.20;99.90;;;;;;4175000;28;20166;-96
2023/06/03 02:49:32;;;;;;;26.70;11.23;;;13.40;99.90;;;;;;4141262;28;20177;-95
2023/06/03 02:51:33;;;;;;;25.77;11.77;;;13.40;99.90;;;;;;4141870;28;20669;-95
2023/06/03 02:53:35;;;;;;;24.98;11.55;;;13.50;99.90;;;;;;4158966;28;20168;-92
2023/06/03 02:55:36;;;;;;;29.15;11.80;;;13.50;99.90;;;;;;4139803;28;20650;-91
2023/06/03 02:57:39;;;;;;;24.60;11.10;;;13.50;99.90;;;;;;4155509;28;20601;-91
2023/06/03 02:59:47;;;;;;;23.63;11.68;;;13.40;99.90;;;;;;4154988;28;20225;-96
2023/06/03 03:01:49;;;;;;;23.67;11.32;;;13.20;99.90;;;;;;4136190;28;20247;-95
2023/06/03 03:03:50;;;;;;;21.48;11.70;;;13.50;99.90;;;;;;4137173;28;20169;-91
2023/06/03 03:05:54;;;;;;;22.85;11.25;;;13.50;99.90;;;;;;4156193;28;20204;-96
2023/06/03 03:08:01;;;;;;;19.83;11.27;;;13.60;99.90;;;;;;4157656;28;20173;-92
2023/06/03 03:10:07;;;;;;;26.08;11.38;;;13.40;99.90;;;;;;4155147;28;20259;-95
2023/06/03 03:12:10;;;;;;;26.58;11.80;;;13.40;99.90;;;;;;4140617;28;20183;-95
2023/06/03 03:14:15;;;;;;;25.42;11.70;;;13.50;99.90;;;;;;4142364;28;20169;-96
2023/06/03 03:16:17;;;;;;;20.17;11.98;;;13.50;99.90;;;;;;4139825;28;20321;-90
2023/06/03 03:18:20;;;;;;;24.80;12.27;;;13.50;99.90;;;;;;4156155;28;20232;-90
2023/06/03 03:20:21;;;;;;;27.38;11.48;;;13.50;99.90;;;;;;4157719;28;20200;-96
2023/06/03 03:22:22;;;;;;;25.83;11.80;;;13.50;99.90;;;;;;4154773;28;20578;-96
2023/06/03 03:24:24;;;;;;;21.40;11.15;;;13.50;99.90;;;;;;4156785;28;20257;-96
2023/06/03 03:26:26;;;;;;;22.95;11.93;;;13.40;99.90;;;;;;4155233;28;20557;-95
2023/06/03 03:28:27;;;;;;;22.23;11.38;;;13.20;99.90;;;;;;4154734;28;20212;-95
2023/06/03 03:30:31;;;;;;;27.48;12.43;;;13.20;99.90;;;;;;4142823;28;20170;-94
2023/06/03 03:32:35;;;;;;;21.20;12.18;;;13.30;99.90;;;;;;4156419;28;20196;-94
2023/06/03 03:34:37;;;;;;;23.52;12.25;;;13.20;99.90;;;;;;4156517;28;21173;-95
2023/06/03 03:36:39;;;;;;;23.60;11.55;;;13.20;99.90;;;;;;4156194;28;20224;-92
2023/06/03 03:38:50;;;;;;;23.80;12.52;;;13.20;99.90;;;;;;4170286;28;20241;-90
2023/06/03 03:40:50;;;;;;;29.77;12.38;;;13.20;99.90;;;;;;4138875;28;20219;-96
2023/06/03 03:42:53;;;;;;;26.13;12.48;;;13.10;99.90;;;;;;4139082;28;20186;-96
2023/06/03 03:45:00;;;;;;;26.63;12.13;;;13.20;99.90;;;;;;4169768;28;20186;-92
2023/06/03 03:47:03;;;;;;;21.77;11.57;;;13.20;99.90;;;;;;4138363;28;20260;-96
2023/06/03 03:49:10;;;;;;;25.20;11.38;;;13.20;99.90;;;;;;4173244;28;20676;-93
2023/06/03 03:51:14;;;;;;;30.77;12.98;;;13.30;99.90;;;;;;4152071;28;20169;-91
2023/06/03 03:53:22;;;;;;;24.67;11.63;;;13.30;99.90;;;;;;4156077;28;20228;-94
2023/06/03 03:55:23;;;;;;;25.50;11.80;;;13.30;99.90;;;;;;4138564;28;20626;-93
2023/06/03 03:57:24;;;;;;;25.30;12.25;;;13.30;99.90;;;;;;4170633;28;20205;-91
2023/06/03 03:59:27;;;;;;;25.15;12.23;;;13.30;99.90;;;;;;4137470;28;20647;-91
2023/06/03 04:01:39;;;;;;;27.85;12.68;;;13.30;99.90;;;;;;4141009;28;20296;-92
2023/06/03 04:03:49;;;;;;;24.42;11.98;;;13.20;99.90;;;;;;4159451;28;20265;-90
2023/06/03 04:05:50;;;;;;;16.75;11.02;;;13.10;99.90;;;;;;4143837;28;20213;-96
2023/06/03 04:07:53;;;;;;;22.20;11.98;;;13.10;99.90;;;;;;4139720;28;20263;-94
2023/06/03 04:09:54;;;;;;;24.48;12.07;;;13.20;99.90;;;;;;4154053;28;20177;-92
2023/06/03 04:11:56;;;;;;;21.73;12.18;;;13.20;99.90;;;;;;4155814;28;20177;-90
2023/06/03 04:14:00;;;;;;;24.65;12.23;;;13.30;99.90;;;;;;4175903;28;20582;-91
2023/06/03 04:16:10;;;;;;;22.70;11.27;;;13.20;99.90;;;;;;4157475;28;20279;-91
2023/06/03 04:18:12;;;;;;;23.67;11.90;;;13.20;99.90;;;;;;4157098;28;20160;-90
2023/06/03 04:20:39;;;;;;;28.10;12.20;;;13.10;99.90;;;;;;4145212;28;20177;-95
2023/06/03 04:22:40;;;;;;;32.03;11.85;;;13.20;99.90;;;;;;4138045;28;20170;-95
2023/06/03 04:24:42;;;;;;;25.17;12.48;;;13.10;99.90;;;;;;4143279;28;20165;-91
2023/06/03 04:26:43;;;;;;;27.58;11.73;;;13.10;99.90;;;;;;4125567;28;20289;-95
2023/06/03 04:28:46;;;;;;;26.02;12.38;;;13.10;99.90;;;;;;4144561;28;20172;-95
2023/06/03 04:30:49;;;;;;;21.48;11.90;;;13.10;99.90;;;;;;4156696;28;20308;-94
2023/06/03 04:32:50;;;;;;;21.13;11.57;;;13.20;99.90;;;;;;4156811;28;20165;-96
2023/06/03 04:34:55;;;;;;;22.90;11.68;;;13.20;99.90;;;;;;4158184;28;20196;-95
2023/06/03 04:36:56;;;;;;;23.23;12.10;;;13.20;99.90;;;;;;4124912;28;20694;-94
2023/06/03 04:39:00;;;;;;;22.02;11.75;;;13.20;99.90;;;;;;4140674;28;20598;-91
2023/06/03 04:41:02;;;;;;;25.60;11.75;;;13.20;99.90;;;;;;4140045;28;20224;-91
2023/06/03 04:43:03;;;;;;;28.85;12.35;;;13.30;99.90;;;;;;4140194;28;20605;-95
2023/06/03 04:45:08;;;;;;;25.15;11.85;;;13.30;99.90;;;;;;4157010;28;20180;-95
2023/06/03 04:47:11;;;;;;;21.85;11.68;;;13.30;99.90;;;;;;4171625;28;20220;-95
2023/06/03 04:49:12;;;;;;;24.90;12.02;;;13.30;99.90;;;;;;4140408;28;20177;-95
2023/06/03 04:51:14;;;;;;;23.05;11.88;;;13.10;99.90;;;;;;4169971;28;20199;-94
2023/06/03 04:53:18;;;;;;;26.50;12.43;;;13.00;99.90;;;;;;4154155;28;20181;-91
2023/06/03 04:55:19;;;;;;;20.25;11.50;;;12.90;99.90;;;;;;4171534;28;20187;-94
2023/06/03 04:57:20;;;;;;;24.40;12.05;;;12.90;99.90;;;;;;4138377;28;20626;-91
2023/06/03 04:59:21;;;;;;;25.50;12.10;;;13.00;99.90;;;;;;4151981;28;20169;-94
2023/06/03 05:01:28;;;;;;;22.95;11.75;;;13.00;99.90;;;;;;4152406;28;20239;-92
2023/06/03 05:03:29;;;;;;;23.83;11.65;;;13.00;99.90;;;;;;4151463;28;20173;-91
2023/06/03 05:05:30;;;;;;;25.10;12.43;;;13.00;99.90;;;;;;4153071;28;20589;-91
2023/06/03 05:07:31;;;;;;;24.27;12.82;;;13.00;99.90;;;;;;4151103;28;20188;-93
2023/06/03 05:09:32;;;;;;;28.23;12.20;;;13.10;99.90;;;;;;4150367;28;20239;-94
2023/06/03 05:11:33;;;;;;;21.15;11.88;;;13.10;99.90;;;;;;4149980;28;20661;-96
2023/06/03 05:13:34;;;;;;;33.97;13.32;;;13.20;99.90;;;;;;4150519;28;20219;-96
2023/06/03 05:15:37;;;;;;;26.17;12.55;;;13.20;99.90;;;;;;4134231;28;20631;-95
2023/06/03 05:17:38;;;;;;;24.63;11.70;;;13.30;99.90;;;;;;4150536;28;20236;-95
2023/06/03 05:19:40;;;;;;;25.83;12.75;;;13.40;99.90;;;;;;4150502;28;20173;-95
2023/06/03 05:21:40;;;;;;;24.35;11.75;;;13.60;99.90;;;;;;4134114;28;20213;-96
2023/06/03 05:23:42;;;;;;;24.02;11.05;;;13.70;99.90;;;;;;4150316;28;20180;-93
2023/06/03 05:25:43;;;;;;;22.85;11.13;;;13.60;99.90;;;;;;4150776;28;20189;-93
2023/06/03 05:27:46;;;;;;;28.63;11.75;;;13.60;99.90;;;;;;4150922;28;20173;-95
2023/06/03 05:29:47;;;;;;;24.85;11.27;;;13.60;99.90;;;;;;4150328;28;20180;-90
2023/06/03 05:31:48;;;;;;;28.23;10.95;;;13.70;99.90;;;;;;4134356;28;20166;-92
2023/06/03 05:33:49;;;;;;;24.15;10.10;;;13.60;99.90;;;;;;4133749;28;20510;-95
2023/06/03 05:35:53;;;;;;;19.67;9.88;;;13.70;99.90;;;;;;4149747;28;20320;-94
2023/06/03 05:37:54;;;;;;;18.35;10.27;;;13.80;99.90;;;;;;4150090;28;20173;-93
2023/06/03 05:39:55;;;;;;;24.65;10.30;;;13.90;99.90;;;;;;4134018;28;20221;-93
2023/06/03 05:41:56;;;;;;;21.65;9.63;;;14.00;99.90;;;;;;4150194;28;20211;-94
2023/06/03 05:43:59;;;;;;;19.23;8.93;;;14.10;99.90;;;;;;4134820;28;20664;-95
2023/06/03 05:46:00;;;;;;;18.55;9.95;;;14.20;99.90;;;;;;4150087;28;20193;-91
2023/06/03 05:48:01;;;;;;;25.83;9.40;;;14.20;99.90;;;;;;4151914;28;20172;-95
2023/06/03 05:50:01;;;;;;;17.45;9.38;;;14.30;99.90;;;;;;4149840;28;21054;-92
2023/06/03 05:52:04;;;;;;;22.88;9.13;;;14.40;99.90;;;;;;4133666;28;20625;-93
2023/06/03 05:54:05;;;;;;;22.40;9.10;;;14.50;99.90;;;;;;4133284;28;20173;-90
2023/06/03 05:56:06;;;;;;;23.45;8.63;;;14.60;99.90;;;;;;4133775;28;20276;-92
2023/06/03 05:58:07;;;;;;;23.80;8.63;;;14.70;99.90;;;;;;4149508;28;20231;-92
2023/06/03 06:00:09;;;;;;;19.08;9.10;;;14.90;99.90;;;;;;4133477;28;20275;-95
2023/06/03 06:02:14;;;;;;;20.40;8.80;;;15.00;99.90;;;;;;4149815;28;20221;-93
2023/06/03 06:04:16;;;;;;;22.60;8.20;;;15.10;99.90;;;;;;4149584;28;20652;-91
2023/06/03 06:06:18;;;;;;;20.50;7.68;;;15.20;99.90;;;;;;4133091;28;20205;-91
2023/06/03 06:08:18;;;;;;;16.13;7.57;;;15.50;99.90;;;;;;4149488;28;20534;-91
2023/06/03 06:10:19;;;;;;;23.48;7.85;;;15.60;99.90;;;;;;4133049;28;20268;-95
2023/06/03 06:12:20;;;;;;;12.55;7.65;;;15.60;99.90;;;;;;4149864;28;20327;-91
2023/06/03 06:14:21;;;;;;;17.02;7.35;;;15.60;99.90;;;;;;4149474;28;20177;-95
2023/06/03 06:16:22;;;;;;;22.55;7.35;;;15.60;99.90;;;;;;4133234;28;20197;-92
2023/06/03 06:18:23;;;;;;;18.58;7.18;;;15.70;99.90;;;;;;4149512;28;20192;-96
2023/06/03 06:20:24;;;;;;;19.92;7.32;;;15.80;99.90;;;;;;4133464;28;20169;-91
2023/06/03 06:22:25;;;;;;;16.15;7.00;;;15.70;99.90;;;;;;4149487;28;20173;-91
2023/06/03 06:24:26;;;;;;;17.13;7.03;;;15.70;99.90;;;;;;4149826;28;20169;-92
2023/06/03 06:26:28;;;;;;;18.63;6.45;;;15.80;99.90;;;;;;4150386;28;20196;-90
2023/06/03 06:28:31;;;;;;;14.95;6.75;;;15.80;99.90;;;;;;4149668;28;20219;-91
2023/06/03 06:30:36;;;;;;;17.67;7.53;;;15.90;99.90;;;;;;4133798;28;20189;-91
2023/06/03 06:32:51;;;;;;;15.13;6.18;;;16.10;99.90;;;;;;4149636;28;20252;-90
2023/06/03 06:34:56;;;;;;;20.58;6.55;;;16.20;99.90;;;;;;4133537;28;20177;-90
2023/06/03 06:36:59;;;;;;;13.60;5.93;;;16.30;99.90;;;;;;4132879;28;20280;-95
2023/06/03 06:39:33;;;;;;;13.20;5.60;;;16.40;99.90;;;;;;4133172;28;20669;-91
2023/06/03 06:41:38;;;;;;;16.50;5.50;;;16.40;99.90;;;;;;4165538;28;20208;-93
2023/06/03 06:43:41;;;;;;;21.88;5.50;;;16.60;99.90;;;;;;4166952;28;20524;-94
2023/06/03 06:45:42;;;;;;;18.02;4.85;;;16.70;99.90;;;;;;4149023;28;20193;-90
2023/06/03 06:47:43;;;;;;;13.27;4.85;;;16.90;99.90;;;;;;4149260;28;20207;-91
2023/06/03 06:49:44;;;;;;;17.17;4.70;;;16.90;99.90;;;;;;4132621;28;20272;-91
2023/06/03 06:51:50;;;;;;;11.02;4.68;;;17.00;99.90;;;;;;4150045;28;20223;-91
2023/06/03 06:53:52;;;;;;;10.00;4.50;;;17.20;99.90;;;;;;4149363;28;20179;-94
2023/06/03 06:56:00;;;;;;;13.52;4.78;;;17.30;99.90;;;;;;4153416;28;20188;-93
2023/06/03 06:58:33;;;;;;;11.00;4.30;;;17.60;99.90;;;;;;4151726;28;20176;-94
2023/06/03 07:00:34;;;;;;;9.95;4.70;;;17.80;99.90;;;;;;4132677;28;20283;-90
2023/06/03 07:02:34;;;;;;;13.95;3.95;;;18.10;99.90;;;;;;4149187;28;20169;-91
2023/06/03 07:04:35;;;;;;;12.82;4.43;;;18.20;99.90;;;;;;4149766;28;20573;-91
2023/06/03 07:06:36;;;;;;;13.10;4.10;;;18.20;99.90;;;;;;4133124;28;20193;-91
2023/06/03 07:08:40;;;;;;;10.38;3.55;;;18.00;99.90;;;;;;4148550;28;20184;-91
2023/06/03 07:10:41;;;;;;;13.30;3.50;;;18.10;99.90;;;;;;4132609;28;20178;-91
2023/06/03 07:12:42;;;;;;;7.65;3.20;;;18.80;99.90;;;;;;4149153;28;20165;-91
2023/06/03 07:14:43;;;;;;;13.40;4.00;;;19.80;99.90;;;;;;4149402;28;20276;-90
2023/06/03 07:16:47;;;;;;;10.02;4.22;;;20.80;99.90;;;;;;4149242;28;20193;-94
2023/06/03 07:18:50;;;;;;;14.20;4.15;;;21.40;99.90;;;;;;4149193;28;20649;-91
2023/06/03 07:20:51;;;;;;;10.07;3.50;;;22.40;99.90;;;;;;4133336;28;20197;-91
2023/06/03 07:22:52;;;;;;;9.93;3.60;;;22.90;99.90;;;;;;4133429;28;20260;-91
2023/06/03 07:24:53;;;;;;;14.05;3.20;;;23.20;99.90;;;;;;4133240;28;20621;-92
2023/06/03 07:26:53;;;;;;;9.50;2.88;;;23.00;99.90;;;;;;4149034;28;20280;-95
2023/06/03 07:28:58;;;;;;;33.65;6.53;;;22.70;99.90;;;;;;4132357;28;20174;-94
2023/06/03 07:31:03;;;;;;;12.75;3.20;;;22.70;99.90;;;;;;4149157;28;20173;-90
2023/06/03 07:33:06;;;;;;;12.45;3.70;;;22.70;99.90;;;;;;4135473;28;20220;-92
2023/06/03 07:35:08;;;;;;;9.60;3.00;;;22.90;99.90;;;;;;4149088;28;20209;-91
2023/06/03 07:37:12;;;;;;;9.82;2.97;;;22.60;99.90;;;;;;4133667;28;20211;-91
2023/06/03 07:39:19;;;;;;;11.02;3.30;;;22.00;99.90;;;;;;4149626;28;20180;-92
2023/06/03 07:41:50;;;;;;;12.93;3.10;;;21.80;99.90;;;;;;4148673;28;20212;-91
2023/06/03 07:44:32;;;;;;;8.57;3.10;;;21.70;99.90;;;;;;4150206;28;20189;-91
2023/06/03 07:46:39;;;;;;;5.53;2.35;;;22.30;99.90;;;;;;4133249;28;20685;-92
2023/06/03 07:48:40;;;;;;;9.40;2.55;;;22.60;99.90;;;;;;4146790;28;20174;-90
2023/06/03 07:50:41;;;;;;;12.80;2.78;;;23.00;99.90;;;;;;4140247;28;20233;-95
2023/06/03 07:52:41;;;;;;;9.85;2.80;;;23.20;99.90;;;;;;4132523;28;20177;-93
2023/06/03 07:54:42;;;;;;;8.15;2.65;;;23.40;99.90;;;;;;4132749;28;20188;-91
2023/06/03 07:56:44;;;;;;;7.50;2.55;;;23.00;99.90;;;;;;4149516;28;20197;-90
2023/06/03 07:58:45;;;;;;;8.82;2.20;;;22.50;99.90;;;;;;4132329;28;20264;-95
2023/06/03 08:00:50;;;;;;;10.95;2.65;;;22.40;99.90;;;;;;4149855;28;20204;-94
2023/06/03 08:02:51;;;;;;;5.50;2.58;;;22.70;99.90;;;;;;4134458;28;20248;-90
2023/06/03 08:04:55;;;;;;;8.75;2.20;;;22.70;99.90;;;;;;4150881;28;20172;-89
2023/06/03 08:07:00;;;;;;;6.60;2.10;;;22.60;99.90;;;;;;4133002;28;20197;-91
2023/06/03 08:09:00;;;;;;;4.80;1.90;;;22.30;99.90;;;;;;4149653;28;20635;-89
2023/06/03 08:11:02;;;;;;;10.73;2.20;;;22.20;99.90;;;;;;4133271;28;20258;-90
2023/06/03 08:13:03;;;;;;;4.68;1.88;;;22.20;99.90;;;;;;4133394;28;20169;-89
2023/06/03 08:15:06;;;;;;;12.68;3.05;;;22.10;99.90;;;;;;4134957;28;20728;-88
2023/06/03 08:17:11;;;;;;;6.68;1.77;;;21.90;99.90;;;;;;4150505;28;20193;-89
2023/06/03 08:19:14;;;;;;;5.82;2.28;;;22.00;99.90;;;;;;4150294;28;20240;-93
2023/06/03 08:21:15;;;;;;;4.30;1.95;;;22.40;99.90;;;;;;4150005;28;20605;-89
2023/06/03 08:23:16;;;;;;;7.35;2.20;;;22.70;99.90;;;;;;4149974;28;20268;-89
2023/06/03 08:25:17;;;;;;;6.20;2.00;;;22.90;99.90;;;;;;4131970;28;20677;-89
2023/06/03 08:27:17;;;;;;;6.55;2.08;;;22.70;99.90;;;;;;4148782;28;20275;-88
2023/06/03 08:29:18;;;;;;;9.27;2.03;;;22.50;99.90;;;;;;4131122;28;20185;-90
2023/06/03 08:31:19;;;;;;;4.82;1.73;;;22.30;99.90;;;;;;4131760;28;20201;-89
2023/06/03 08:33:20;;;;;;;6.15;1.95;;;22.70;99.90;;;;;;4131535;28;20243;-88
2023/06/03 08:35:21;;;;;;;8.63;2.00;;;23.00;99.90;;;;;;4131526;28;20661;-90
2023/06/03 08:37:22;;;;;;;9.27;2.20;;;23.10;99.90;;;;;;4147915;28;20209;-89
2023/06/03 08:39:22;;;;;;;7.47;1.70;;;22.90;99.90;;;;;;4132375;28;20325;-90
2023/06/03 08:41:28;;;;;;;6.97;2.10;;;22.70;99.90;;;;;;4147696;28;20209;-90
2023/06/03 08:43:41;;;;;;;13.13;2.67;;;22.70;99.90;;;;;;4133094;28;20216;-89
2023/06/03 08:46:16;;;;;;;6.65;1.80;;;22.90;99.90;;;;;;4164311;28;20188;-89
2023/06/03 08:48:21;;;;;;;7.32;1.88;;;22.60;99.90;;;;;;4147162;28;20176;-89
2023/06/03 08:50:24;;;;;;;9.57;2.00;;;22.50;99.90;;;;;;4152476;28;20173;-90
2023/06/03 08:52:30;;;;;;;3.50;1.80;;;22.50;99.90;;;;;;4167524;28;20254;-88
2023/06/03 08:54:37;;;;;;;7.13;1.65;;;22.80;99.90;;;;;;4151511;28;20165;-96
2023/06/03 08:56:44;;;;;;;8.43;1.75;;;23.10;99.90;;;;;;4134435;28;20204;-88
2023/06/03 08:58:54;;;;;;;6.65;1.73;;;23.20;99.90;;;;;;4150809;28;20180;-95
2023/06/03 09:01:01;;;;;;;4.55;1.60;;;22.80;99.90;;;;;;4151844;28;20306;-89
2023/06/03 09:03:03;;;;;;;6.78;1.60;;;22.80;99.90;;;;;;4150480;28;20192;-90
2023/06/03 09:05:06;;;;;;;5.25;1.30;;;23.20;99.90;;;;;;4151138;28;20602;-91
2023/06/03 09:07:09;;;;;;;3.53;1.52;;;23.60;99.90;;;;;;4167303;28;20212;-91
2023/06/03 09:09:12;;;;;;;5.85;1.60;;;23.70;99.90;;;;;;4134540;28;20260;-89
2023/06/03 09:11:14;;;;;;;6.32;1.60;;;23.80;99.90;;;;;;4151925;28;20214;-88
2023/06/03 09:13:17;;;;;;;4.03;1.30;;;23.10;99.90;;;;;;4167230;28;20211;-92
2023/06/03 09:15:18;;;;;;;4.65;1.40;;;22.90;99.90;;;;;;4134511;28;20236;-89
2023/06/03 09:17:24;;;;;;;8.45;1.88;;;22.90;99.90;;;;;;4155353;28;20173;-89
2023/06/03 09:19:26;;;;;;;7.97;1.70;;;22.80;99.90;;;;;;4158975;28;20275;-91
2023/06/03 09:21:28;;;;;;;6.90;1.55;;;22.90;99.90;;;;;;4171268;28;20293;-94
2023/06/03 09:23:31;;;;;;;13.20;1.77;;;23.30;99.90;;;;;;4171300;28;20176;-90
2023/06/03 09:25:32;;;;;;;9.00;1.83;;;23.10;99.90;;;;;;4153003;28;20172;-88
2023/06/03 09:27:32;;;;;;;4.55;1.33;;;22.70;99.90;;;;;;4152105;28;20165;-88
2023/06/03 09:29:34;;;;;;;3.90;1.40;;;22.60;99.90;;;;;;4134557;28;20181;-89
2023/06/03 09:31:35;;;;;;;4.95;1.27;;;22.80;99.90;;;;;;4134551;28;20252;-88
2023/06/03 09:33:37;;;;;;;4.65;1.60;;;23.00;99.90;;;;;;4150256;28;20172;-89
2023/06/03 09:35:37;;;;;;;10.23;1.77;;;22.80;99.90;;;;;;4134403;28;20201;-87
2023/06/03 09:37:38;;;;;;;8.00;1.45;;;22.40;99.90;;;;;;4134209;28;20185;-89
2023/06/03 09:39:40;;;;;;;9.60;1.50;;;21.80;99.90;;;;;;4135101;28;20189;-89
2023/06/03 09:41:41;;;;;;;8.93;1.55;;;21.50;99.90;;;;;;4135098;28;20225;-88
2023/06/03 09:43:54;;;;;;;13.90;1.50;;;21.60;99.90;;;;;;4152409;28;20676;-87
2023/06/03 09:45:57;;;;;;;6.43;1.45;;;22.10;99.90;;;;;;4189835;22;20183;-89
2023/06/03 09:48:02;;;;;;;10.20;1.80;;;22.60;99.90;;;;;;4189553;28;20184;-88
2023/06/03 09:50:04;;;;;;;7.78;1.50;;;22.90;99.90;;;;;;4184343;28;20175;-88
2023/06/03 09:52:11;;;;;;;12.88;1.70;;;23.20;99.90;;;;;;4167615;28;20717;-89
2023/06/03 09:54:15;;;;;;;3.95;1.52;;;23.30;99.90;;;;;;4170283;28;20262;-87
2023/06/03 09:56:26;;;;;;;7.65;1.60;;;23.40;99.90;;;;;;4189004;28;20196;-88
2023/06/03 09:58:27;;;;;;;5.13;1.75;;;23.50;99.90;;;;;;4192863;28;20175;-95
2023/06/03 10:00:30;;;;;;;6.07;1.50;;;23.70;99.90;;;;;;4192540;28;20178;-90
2023/06/03 10:02:30;;;;;;;5.32;1.75;;;23.70;99.90;;;;;;4172889;28;20187;-87
2023/06/03 10:04:46;;;;;;;5.78;1.45;;;24.20;99.90;;;;;;4184805;28;20233;-92
2023/06/03 10:07:07;;;;;;;5.43;1.65;;;23.70;99.90;;;;;;4153837;28;20699;-95
2023/06/03 10:09:25;;;;;;;6.53;1.70;;;23.50;99.90;;;;;;4169588;28;20192;-89
2023/06/03 10:11:26;;;;;;;9.70;1.52;;;23.60;99.90;;;;;;4153315;28;20184;-89
2023/06/03 10:13:26;;;;;;;4.35;1.70;;;23.60;99.90;;;;;;4175847;28;20168;-89
2023/06/03 10:15:35;;;;;;;5.38;1.40;;;23.70;99.90;;;;;;4175986;28;20641;-90
2023/06/03 10:17:44;;;;;;;5.32;1.80;;;24.20;99.90;;;;;;4192690;28;20183;-90
2023/06/03 10:19:46;;;;;;;6.65;1.73;;;24.00;99.90;;;;;;4186971;28;20183;-94
2023/06/03 10:21:47;;;;;;;4.00;1.60;;;23.80;99.90;;;;;;4184493;28;20210;-88
2023/06/03 10:23:49;;;;;;;4.53;1.42;;;23.30;99.90;;;;;;4167984;28;20169;-88
2023/06/03 10:25:52;;;;;;;7.63;1.52;;;22.90;99.90;;;;;;4171332;28;20192;-88
2023/06/03 10:27:55;;;;;;;6.47;1.73;;;22.40;99.90;;;;;;4167824;28;20267;-89
2023/06/03 10:29:57;;;;;;;8.68;1.75;;;22.30;99.90;;;;;;4168274;28;20180;-96
2023/06/03 10:32:00;;;;;;;9.18;1.52;;;21.80;99.90;;;;;;4188612;28;20171;-92
2023/06/03 10:34:05;;;;;;;4.35;1.75;;;21.60;99.90;;;;;;4174567;28;20172;-91